createdAt,value
2022-10-18T00:01:05.917Z,100604.41
2022-10-18T00:04:16.261Z,100604.24
2022-10-18T00:07:20.028Z,100608.71
2022-10-18T00:10:27.913Z,100620.80
2022-10-18T00:13:34.267Z,100628.96
2022-10-18T00:16:37.744Z,100625.20
2022-10-18T00:19:42.760Z,100623.31
2022-10-18T00:22:46.353Z,100617.92
2022-10-18T00:25:49.116Z,100621.40
2022-10-18T00:28:54.992Z,100623.66
2022-10-18T00:31:57.988Z,100633.18
2022-10-18T00:35:00.716Z,100633.09
2022-10-18T00:38:03.541Z,100632.73
2022-10-18T00:41:08.618Z,100635.84
2022-10-18T00:44:11.296Z,100633.71
2022-10-18T00:47:18.163Z,100634.15
2022-10-18T00:50:22.243Z,100635.24
2022-10-18T00:53:25.098Z,100636.88
2022-10-18T00:56:29.899Z,100627.23
2022-10-18T00:59:34.052Z,100630.30
2022-10-18T01:02:38.625Z,100627.30
2022-10-18T01:05:45.850Z,100629.20
2022-10-18T01:09:24.283Z,100627.55
2022-10-18T01:12:58.540Z,100625.38
2022-10-18T01:16:30.907Z,100620.76
2022-10-18T01:19:58.262Z,100630.21
2022-10-18T01:23:11.069Z,100629.02
2022-10-18T01:26:45.499Z,100629.11
2022-10-18T01:30:03.640Z,100629.36
2022-10-18T01:33:20.422Z,100627.75
2022-10-18T01:36:29.159Z,100630.38
2022-10-18T01:39:37.515Z,100629.11
2022-10-18T01:42:40.242Z,100631.02
2022-10-18T01:45:43.505Z,100628.05
2022-10-18T01:48:47.137Z,100626.16
2022-10-18T01:51:49.977Z,100633.73
2022-10-18T01:54:55.026Z,100630.81
2022-10-18T01:58:10.723Z,100632.58
2022-10-18T02:01:31.139Z,100632.11
2022-10-18T02:04:40.773Z,100626.14
2022-10-18T02:08:24.215Z,100622.30
2022-10-18T02:11:30.821Z,100622.96
2022-10-18T02:14:34.928Z,100626.02
2022-10-18T02:17:40.347Z,100625.46
2022-10-18T02:20:43.333Z,100629.70
2022-10-18T02:23:47.797Z,100628.15
2022-10-18T02:26:50.723Z,100629.88
2022-10-18T02:29:54.121Z,100632.77
2022-10-18T02:33:04.613Z,100639.49
2022-10-18T02:36:17.236Z,100637.89
2022-10-18T02:39:25.679Z,100636.33
2022-10-18T02:42:33.893Z,100635.66
2022-10-18T02:45:37.007Z,100640.70
2022-10-18T02:48:39.835Z,100651.85
2022-10-18T02:51:42.572Z,100648.95
2022-10-18T02:54:45.289Z,100650.34
2022-10-18T02:57:48.378Z,100657.36
2022-10-18T03:00:51.267Z,100653.82
2022-10-18T03:03:54.051Z,100655.77
2022-10-18T03:06:56.738Z,100650.35
2022-10-18T03:09:59.507Z,100661.66
2022-10-18T03:13:02.203Z,100668.63
2022-10-18T03:16:05.450Z,100671.10
2022-10-18T03:19:08.405Z,100669.73
2022-10-18T03:22:11.164Z,100672.70
2022-10-18T03:25:14.080Z,100674.41
2022-10-18T03:28:16.943Z,100674.05
2022-10-18T03:31:20.497Z,100676.16
2022-10-18T03:34:26.274Z,100672.27
2022-10-18T03:37:29.142Z,100672.41
2022-10-18T03:40:32.531Z,100679.99
2022-10-18T03:43:35.599Z,100679.19
2022-10-18T03:46:38.576Z,100674.34
2022-10-18T03:49:41.654Z,100676.27
2022-10-18T03:52:44.515Z,100677.77
2022-10-18T03:55:52.927Z,100669.72
2022-10-18T03:58:57.314Z,100669.64
2022-10-18T04:02:00.298Z,100673.87
2022-10-18T04:05:03.789Z,100671.02
2022-10-18T04:08:06.666Z,100672.52
2022-10-18T04:11:11.091Z,100673.11
2022-10-18T04:14:14.035Z,100670.71
2022-10-18T04:17:16.996Z,100667.25
2022-10-18T04:20:19.964Z,100665.05
2022-10-18T04:23:22.838Z,100665.20
2022-10-18T04:26:25.967Z,100663.91
2022-10-18T04:29:28.880Z,100662.85
2022-10-18T04:32:31.867Z,100656.88
2022-10-18T04:35:34.824Z,100655.14
2022-10-18T04:38:37.694Z,100655.80
2022-10-18T04:41:40.547Z,100656.46
2022-10-18T04:44:43.436Z,100661.67
2022-10-18T04:47:46.304Z,100659.78
2022-10-18T04:50:50.197Z,100656.02
2022-10-18T04:53:53.174Z,100656.73
2022-10-18T04:56:58.020Z,100663.95
2022-10-18T05:00:01.163Z,100660.13
2022-10-18T05:03:04.341Z,100655.81
2022-10-18T05:06:07.312Z,100653.25
2022-10-18T05:09:10.488Z,100650.95
2022-10-18T05:12:13.358Z,100653.34
2022-10-18T05:15:16.333Z,100657.70
2022-10-18T05:18:23.583Z,100656.09
2022-10-18T05:21:26.674Z,100655.73
2022-10-18T05:24:29.446Z,100654.84
2022-10-18T05:27:32.415Z,100648.98
2022-10-18T05:30:39.321Z,100653.71
2022-10-18T05:33:42.350Z,100653.84
2022-10-18T05:36:45.323Z,100657.63
2022-10-18T05:39:50.255Z,100657.50
2022-10-18T05:42:53.390Z,100652.69
2022-10-18T05:45:56.490Z,100654.39
2022-10-18T05:48:59.677Z,100652.58
2022-10-18T05:52:02.742Z,100659.45
2022-10-18T05:55:06.123Z,100659.20
2022-10-18T05:58:09.543Z,100660.61
2022-10-18T06:01:13.850Z,100665.72
2022-10-18T06:04:18.061Z,100668.09
2022-10-18T06:07:20.990Z,100664.89
2022-10-18T06:10:24.055Z,100665.77
2022-10-18T06:13:28.278Z,100669.87
2022-10-18T06:16:33.314Z,100670.05
2022-10-18T06:19:36.243Z,100669.10
2022-10-18T06:22:39.118Z,100666.44
2022-10-18T06:25:41.996Z,100672.94
2022-10-18T06:28:45.114Z,100667.38
2022-10-18T06:31:48.136Z,100671.05
2022-10-18T06:34:50.953Z,100677.06
2022-10-18T06:37:53.774Z,100677.71
2022-10-18T06:40:58.224Z,100683.67
2022-10-18T06:44:07.390Z,100685.13
2022-10-18T06:47:10.568Z,100687.79
2022-10-18T06:50:13.645Z,100685.09
2022-10-18T06:53:16.821Z,100679.94
2022-10-18T06:56:25.943Z,100678.70
2022-10-18T06:59:31.230Z,100675.85
2022-10-18T07:02:34.727Z,100673.99
2022-10-18T07:05:38.125Z,100680.99
2022-10-18T07:08:41.504Z,100678.69
2022-10-18T07:11:44.373Z,100670.20
2022-10-18T07:14:47.355Z,100668.88
2022-10-18T07:17:50.732Z,100666.05
2022-10-18T07:20:53.596Z,100667.63
2022-10-18T07:23:57.187Z,100669.52
2022-10-18T07:27:00.053Z,100667.19
2022-10-18T07:30:07.373Z,100680.38
2022-10-18T07:33:10.294Z,100682.75
2022-10-18T07:36:13.676Z,100684.67
2022-10-18T07:39:16.549Z,100682.20
2022-10-18T07:42:19.623Z,100679.23
2022-10-18T07:45:22.592Z,100687.28
2022-10-18T07:48:26.417Z,100687.94
2022-10-18T07:51:31.198Z,100690.01
2022-10-18T07:54:34.070Z,100684.60
2022-10-18T07:57:36.941Z,100677.54
2022-10-18T08:00:40.118Z,100663.70
2022-10-18T08:03:43.911Z,100657.66
2022-10-18T08:06:48.212Z,100662.80
2022-10-18T08:09:51.077Z,100663.69
2022-10-18T08:12:54.916Z,100667.40
2022-10-18T08:16:06.065Z,100668.80
2022-10-18T08:19:09.001Z,100673.29
2022-10-18T08:22:11.978Z,100678.95
2022-10-18T08:25:16.560Z,100681.02
2022-10-18T08:28:20.679Z,100679.02
2022-10-18T08:31:24.579Z,100667.00
2022-10-18T08:34:27.483Z,100651.35
2022-10-18T08:37:30.747Z,100645.90
2022-10-18T08:40:34.928Z,100645.61
2022-10-18T08:43:45.701Z,100638.45
2022-10-18T08:46:56.342Z,100627.89
2022-10-18T08:50:08.954Z,100629.11
2022-10-18T08:53:23.466Z,100635.99
2022-10-18T08:56:27.678Z,100638.32
2022-10-18T08:59:41.385Z,100645.34
2022-10-18T09:02:56.870Z,100639.29
2022-10-18T09:06:19.836Z,100641.26
2022-10-18T09:09:41.754Z,100645.86
2022-10-18T09:13:08.261Z,100641.85
2022-10-18T09:16:15.943Z,100642.11
2022-10-18T09:19:34.266Z,100638.45
2022-10-18T09:22:47.674Z,100641.52
2022-10-18T09:26:00.129Z,100645.99
2022-10-18T09:29:28.310Z,100641.84
2022-10-18T09:32:31.505Z,100642.26
2022-10-18T09:36:02.105Z,100632.98
2022-10-18T09:39:24.107Z,100629.30
2022-10-18T09:42:40.544Z,100621.57
2022-10-18T09:45:46.011Z,100624.66
2022-10-18T09:48:56.549Z,100628.98
2022-10-18T09:52:04.068Z,100625.52
2022-10-18T09:55:16.411Z,100625.10
2022-10-18T09:58:21.433Z,100618.31
2022-10-18T10:01:30.643Z,100614.61
2022-10-18T10:04:33.513Z,100607.94
2022-10-18T10:07:43.351Z,100602.19
2022-10-18T10:10:47.849Z,100590.73
2022-10-18T10:13:50.747Z,100590.88
2022-10-18T10:17:00.346Z,100583.49
2022-10-18T10:20:20.523Z,100588.02
2022-10-18T10:23:28.522Z,100589.23
2022-10-18T10:26:38.995Z,100587.89
2022-10-18T10:29:56.132Z,100576.13
2022-10-18T10:32:59.416Z,100574.73
2022-10-18T10:36:07.357Z,100569.02
2022-10-18T10:39:19.497Z,100565.54
2022-10-18T10:42:22.556Z,100558.37
2022-10-18T10:45:29.009Z,100558.65
2022-10-18T10:48:39.571Z,100569.74
2022-10-18T10:51:43.813Z,100588.16
2022-10-18T10:54:51.350Z,100614.24
2022-10-18T10:57:56.653Z,100631.58
2022-10-18T11:01:18.354Z,100623.95
2022-10-18T11:04:30.870Z,100594.11
2022-10-18T11:07:41.159Z,100581.47
2022-10-18T11:11:19.381Z,100580.42
2022-10-18T11:14:29.915Z,100584.39
2022-10-18T11:17:51.770Z,100591.74
2022-10-18T11:21:09.068Z,100606.45
2022-10-18T11:24:16.783Z,100612.20
2022-10-18T11:27:33.685Z,100596.22
2022-10-18T11:30:49.745Z,100587.65
2022-10-18T11:34:15.947Z,100595.48
2022-10-18T11:37:40.494Z,100600.01
2022-10-18T11:41:23.191Z,100599.40
2022-10-18T11:44:37.522Z,100593.67
2022-10-18T11:47:56.560Z,100587.50
2022-10-18T11:51:05.877Z,100584.81
2022-10-18T11:54:23.996Z,100589.11
2022-10-18T11:57:42.114Z,100597.59
2022-10-18T12:00:49.430Z,100616.70
2022-10-18T12:04:18.151Z,100611.64
2022-10-18T12:07:27.731Z,100610.02
2022-10-18T12:10:46.055Z,100608.79
2022-10-18T12:14:01.231Z,100613.38
2022-10-18T12:17:40.791Z,100607.65
2022-10-18T12:21:05.519Z,100587.02
2022-10-18T12:24:16.338Z,100575.34
2022-10-18T12:27:23.637Z,100572.08
2022-10-18T12:30:55.877Z,100574.20
2022-10-18T12:34:04.678Z,100572.17
2022-10-18T12:37:26.994Z,100556.45
2022-10-18T12:40:44.054Z,100549.55
2022-10-18T12:43:57.311Z,100548.03
2022-10-18T12:47:03.297Z,100549.20
2022-10-18T12:50:25.255Z,100549.64
2022-10-18T12:53:29.435Z,100560.48
2022-10-18T12:56:42.547Z,100576.99
2022-10-18T12:59:45.410Z,100584.96
2022-10-18T13:03:31.261Z,100590.16
2022-10-18T13:07:03.611Z,100589.02
2022-10-18T13:10:13.125Z,100579.54
2022-10-18T13:13:39.054Z,100575.50
2022-10-18T13:16:49.466Z,100567.44
2022-10-18T13:20:20.438Z,100555.17
2022-10-18T13:23:41.768Z,100553.23
2022-10-18T13:27:24.076Z,100551.69
2022-10-18T13:30:32.752Z,100551.06
2022-10-18T13:33:36.831Z,100553.96
2022-10-18T13:36:40.321Z,100560.02
2022-10-18T13:39:43.493Z,100560.82
2022-10-18T13:42:46.362Z,100555.77
2022-10-18T13:45:56.196Z,100552.54
2022-10-18T13:49:17.689Z,100550.72
2022-10-18T13:52:35.721Z,100540.38
2022-10-18T13:56:16.138Z,100540.93
2022-10-18T13:59:44.177Z,100538.42
2022-10-18T14:03:26.967Z,100544.05
2022-10-18T14:06:44.575Z,100536.23
2022-10-18T14:09:56.930Z,100540.62
2022-10-18T14:13:04.515Z,100556.52
2022-10-18T14:16:32.043Z,100564.30
2022-10-18T14:19:44.337Z,100574.04
2022-10-18T14:23:01.748Z,100582.63
2022-10-18T14:26:16.711Z,100592.91
2022-10-18T14:29:22.995Z,100600.96
2022-10-18T14:32:32.341Z,100605.23
2022-10-18T14:35:36.045Z,100609.56
2022-10-18T14:38:56.928Z,100613.48
2022-10-18T14:41:59.812Z,100611.71
2022-10-18T14:45:03.212Z,100611.13
2022-10-18T14:48:27.330Z,100615.70
2022-10-18T14:51:35.377Z,100620.32
2022-10-18T14:54:39.458Z,100621.02
2022-10-18T14:57:43.304Z,100619.40
2022-10-18T15:00:48.538Z,100619.31
2022-10-18T15:03:56.821Z,100616.97
2022-10-18T15:07:15.907Z,100622.77
2022-10-18T15:10:34.284Z,100619.10
2022-10-18T15:13:47.607Z,100619.61
2022-10-18T15:16:59.264Z,100619.69
2022-10-18T15:20:26.696Z,100626.45
2022-10-18T15:23:31.511Z,100618.71
2022-10-18T15:26:34.521Z,100618.77
2022-10-18T15:29:38.067Z,100613.83
2022-10-18T15:32:49.216Z,100616.38
2022-10-18T15:35:55.070Z,100619.29
2022-10-18T15:39:19.978Z,100621.99
2022-10-18T15:42:38.112Z,100619.73
2022-10-18T15:49:19.198Z,100625.25
2022-10-18T15:52:21.970Z,100626.17
2022-10-18T15:55:30.668Z,100619.12
2022-10-18T15:58:46.775Z,100625.49
2022-10-18T16:01:50.664Z,100628.26
2022-10-18T16:04:53.918Z,100621.88
2022-10-18T16:07:56.989Z,100615.20
2022-10-18T16:11:00.176Z,100616.20
2022-10-18T16:14:03.135Z,100618.29
2022-10-18T16:17:07.058Z,100622.23
2022-10-18T16:20:22.481Z,100620.13
2022-10-18T16:23:29.567Z,100619.90
2022-10-18T16:26:33.563Z,100619.75
2022-10-18T16:29:36.415Z,100616.36
2022-10-18T16:32:40.721Z,100624.67
2022-10-18T16:35:43.591Z,100633.05
2022-10-18T16:38:51.780Z,100636.95
2022-10-18T16:41:54.857Z,100639.87
2022-10-18T16:44:58.951Z,100640.80
2022-10-18T16:48:02.031Z,100636.83
2022-10-18T16:51:04.999Z,100645.33
2022-10-18T16:54:08.381Z,100650.02
2022-10-18T16:57:12.894Z,100650.03
2022-10-18T17:00:19.565Z,100651.61
2022-10-18T17:03:22.618Z,100646.95
2022-10-18T17:06:29.488Z,100648.27
2022-10-18T17:09:35.116Z,100653.07
2022-10-18T17:12:37.983Z,100653.23
2022-10-18T17:15:43.778Z,100648.43
2022-10-18T17:18:47.137Z,100650.04
2022-10-18T17:21:50.688Z,100655.23
2022-10-18T17:24:53.433Z,100660.17
2022-10-18T17:27:56.322Z,100662.27
2022-10-18T17:30:59.202Z,100666.56
2022-10-18T17:34:02.472Z,100672.69
2022-10-18T17:37:06.060Z,100675.07
2022-10-18T17:40:10.681Z,100678.34
2022-10-18T17:43:14.770Z,100676.29
2022-10-18T17:46:19.670Z,100674.77
2022-10-18T17:49:22.552Z,100670.05
2022-10-18T17:52:25.524Z,100675.02
2022-10-18T17:55:30.339Z,100673.72
2022-10-18T17:58:33.621Z,100678.65
2022-10-18T18:01:37.918Z,100680.71
2022-10-18T18:04:41.775Z,100683.11
2022-10-18T18:07:44.889Z,100689.40
2022-10-18T18:13:56.586Z,100690.23
2022-10-18T18:17:01.583Z,100684.90
2022-10-18T18:20:05.481Z,100680.14
2022-10-18T18:23:08.454Z,100678.61
2022-10-18T18:26:12.242Z,100671.72
2022-10-18T18:29:15.118Z,100675.81
2022-10-18T18:32:18.082Z,100678.35
2022-10-18T18:35:21.058Z,100674.47
2022-10-18T18:38:26.692Z,100673.33
2022-10-18T18:41:29.763Z,100667.59
2022-10-18T18:44:34.175Z,100669.13
2022-10-18T18:47:38.707Z,100666.81
2022-10-18T18:50:50.250Z,100672.50
2022-10-18T18:53:53.334Z,100669.20
2022-10-18T18:56:56.185Z,100666.98
2022-10-18T18:59:59.060Z,100663.91
2022-10-18T19:29:40.584Z,100675.11
2022-10-18T19:32:44.148Z,100677.15
2022-10-18T19:35:46.937Z,100676.62
2022-10-18T19:38:50.024Z,100681.95
2022-10-18T19:42:26.150Z,100682.77
2022-10-18T19:45:30.339Z,100683.58
2022-10-18T19:48:33.186Z,100682.27
2022-10-18T19:51:38.035Z,100682.52
2022-10-18T19:54:41.034Z,100686.99
2022-10-18T19:57:43.899Z,100680.37
2022-10-18T20:00:52.675Z,100686.39
2022-10-18T20:03:56.601Z,100687.64
2022-10-18T20:06:59.526Z,100691.38
2022-10-18T20:10:03.606Z,100692.42
2022-10-18T20:13:06.611Z,100695.40
2022-10-18T20:16:11.627Z,100706.70
2022-10-18T20:19:14.604Z,100705.34
2022-10-18T20:22:18.494Z,100704.21
2022-10-18T20:25:22.256Z,100710.31
2022-10-18T20:28:27.489Z,100707.31
2022-10-18T20:31:34.679Z,100709.69
2022-10-18T20:34:37.649Z,100718.45
2022-10-18T20:37:40.625Z,100718.81
2022-10-18T20:40:43.718Z,100716.56
2022-10-18T20:43:58.643Z,100716.33
2022-10-18T20:47:01.511Z,100715.46
2022-10-18T20:50:04.898Z,100714.92
2022-10-18T20:53:07.761Z,100717.23
2022-10-18T20:56:39.007Z,100709.60
2022-10-18T20:59:42.168Z,100716.73
2022-10-18T21:02:47.151Z,100716.65
2022-10-18T21:05:51.057Z,100716.23
2022-10-18T21:09:02.148Z,100713.52
2022-10-18T21:12:05.530Z,100719.67
2022-10-18T21:15:09.197Z,100722.50
2022-10-18T21:18:12.065Z,100724.04
2022-10-18T21:21:21.384Z,100727.04
2022-10-18T21:24:26.397Z,100728.61
2022-10-18T21:27:29.886Z,100731.02
2022-10-18T21:30:32.855Z,100727.85
2022-10-18T21:33:35.732Z,100727.48
2022-10-18T21:36:40.436Z,100721.38
2022-10-18T21:39:43.530Z,100718.48
2022-10-18T21:42:46.586Z,100718.78
2022-10-18T21:45:49.461Z,100715.46
2022-10-18T21:48:54.387Z,100717.00
2022-10-18T21:51:58.580Z,100712.83
2022-10-18T21:55:01.955Z,100708.98
2022-10-18T21:58:04.928Z,100700.54
2022-10-18T22:01:09.998Z,100701.10
2022-10-18T22:04:24.446Z,100694.29
2022-10-18T22:07:28.168Z,100691.61
2022-10-18T22:10:32.388Z,100679.05
2022-10-18T22:13:35.650Z,100674.82
2022-10-18T22:16:38.727Z,100669.67
2022-10-18T22:19:43.742Z,100670.46
2022-10-18T22:22:47.625Z,100671.20
2022-10-18T22:25:51.428Z,100664.14
2022-10-18T22:28:56.029Z,100656.73
2022-10-18T22:31:59.622Z,100656.75
2022-10-18T22:35:02.390Z,100662.48
2022-10-18T22:38:05.262Z,100669.45
2022-10-18T22:41:11.464Z,100665.73
2022-10-18T22:44:15.409Z,100658.77
2022-10-18T22:47:18.384Z,100664.11
2022-10-18T22:50:21.348Z,100663.92
2022-10-18T22:53:24.421Z,100660.88
2022-10-18T22:56:28.723Z,100658.89
2022-10-18T22:59:31.596Z,100658.66
2022-10-18T23:02:34.899Z,100660.98
2022-10-18T23:05:42.760Z,100663.06
2022-10-18T23:08:45.727Z,100653.89
2022-10-18T23:11:51.161Z,100656.48
2022-10-18T23:14:54.032Z,100660.46
2022-10-18T23:18:00.171Z,100665.06
2022-10-18T23:21:10.847Z,100669.51
2022-10-18T23:24:13.798Z,100662.80
2022-10-18T23:27:16.660Z,100660.45
2022-10-18T23:30:20.052Z,100662.40
2022-10-18T23:33:23.022Z,100667.52
2022-10-18T23:36:26.608Z,100669.20
2022-10-18T23:39:29.473Z,100669.58
2022-10-18T23:42:32.340Z,100667.20
2022-10-18T23:45:37.794Z,100669.21
2022-10-18T23:48:40.844Z,100665.25
2022-10-18T23:51:43.714Z,100661.11
2022-10-18T23:54:46.813Z,100659.02
2022-10-18T23:57:49.657Z,100652.08
